createdAt,value
2023-05-23T00:00:59.857Z,9.47
2023-05-23T00:03:27.583Z,9.57
2023-05-23T00:05:56.584Z,10.37
2023-05-23T00:08:23.737Z,9.90
2023-05-23T00:10:51.024Z,10.90
2023-05-23T00:13:17.790Z,10.50
2023-05-23T00:15:45.009Z,10.80
2023-05-23T00:18:11.931Z,10.67
2023-05-23T00:20:40.879Z,10.80
2023-05-23T00:23:11.412Z,11.57
2023-05-23T00:25:38.413Z,11.40
2023-05-23T00:28:05.677Z,10.83
2023-05-23T00:30:34.069Z,11.33
2023-05-23T00:33:03.275Z,11.27
2023-05-23T00:35:30.338Z,10.50
2023-05-23T00:37:57.126Z,12.30
2023-05-23T00:40:24.016Z,10.60
2023-05-23T00:42:50.821Z,12.07
2023-05-23T00:45:18.322Z,10.90
2023-05-23T00:47:47.066Z,11.70
2023-05-23T00:50:17.101Z,11.70
2023-05-23T00:52:46.127Z,10.67
2023-05-23T00:55:13.378Z,11.93
2023-05-23T00:57:44.320Z,11.67
2023-05-23T01:00:13.944Z,11.43
2023-05-23T01:02:45.114Z,11.70
2023-05-23T01:05:14.911Z,12.00
2023-05-23T01:07:41.985Z,12.10
2023-05-23T01:10:11.134Z,13.00
2023-05-23T01:13:05.665Z,12.13
2023-05-23T01:15:45.982Z,14.23
2023-05-23T01:18:24.671Z,12.97
2023-05-23T01:20:56.012Z,13.67
2023-05-23T01:23:39.147Z,13.97
2023-05-23T01:26:18.695Z,12.83
2023-05-23T01:28:54.499Z,14.83
2023-05-23T01:31:24.612Z,12.90
2023-05-23T01:33:53.482Z,13.50
2023-05-23T01:36:20.601Z,13.90
2023-05-23T01:38:47.357Z,13.23
2023-05-23T01:41:14.084Z,12.57
2023-05-23T01:43:40.883Z,13.93
2023-05-23T01:46:08.680Z,13.10
2023-05-23T01:48:36.617Z,13.03
2023-05-23T01:51:03.693Z,14.43
2023-05-23T01:53:32.122Z,14.40
2023-05-23T01:56:03.310Z,14.73
2023-05-23T01:58:30.586Z,13.17
2023-05-23T02:00:57.776Z,16.27
2023-05-23T02:03:24.693Z,14.17
2023-05-23T02:05:51.589Z,14.53
2023-05-23T02:08:18.306Z,14.33
2023-05-23T02:10:45.146Z,15.70
2023-05-23T02:13:11.857Z,14.47
2023-05-23T02:15:38.798Z,13.83
2023-05-23T02:18:06.664Z,13.37
2023-05-23T02:20:33.507Z,14.67
2023-05-23T02:23:00.254Z,14.80
2023-05-23T02:25:27.118Z,15.07
2023-05-23T02:27:53.815Z,13.77
2023-05-23T02:30:20.666Z,14.10
2023-05-23T02:32:47.603Z,15.03
2023-05-23T02:35:14.383Z,13.43
2023-05-23T02:37:41.241Z,13.80
2023-05-23T02:40:08.589Z,14.10
2023-05-23T02:42:35.332Z,14.77
2023-05-23T02:45:02.357Z,15.23
2023-05-23T02:47:29.077Z,14.57
2023-05-23T02:49:55.844Z,15.33
2023-05-23T02:52:22.681Z,13.40
2023-05-23T02:54:49.402Z,12.60
2023-05-23T02:57:16.143Z,15.17
2023-05-23T02:59:42.852Z,14.93
2023-05-23T03:02:09.626Z,14.00
2023-05-23T03:04:38.137Z,15.63
2023-05-23T03:07:11.541Z,15.20
2023-05-23T03:09:41.502Z,15.30
2023-05-23T03:12:08.488Z,14.63
2023-05-23T03:14:35.367Z,14.63
2023-05-23T03:17:04.169Z,14.33
2023-05-23T03:19:32.113Z,14.90
2023-05-23T03:21:59.887Z,15.57
2023-05-23T03:24:26.788Z,16.60
2023-05-23T03:26:53.634Z,16.13
2023-05-23T03:29:20.703Z,16.30
2023-05-23T03:31:47.594Z,15.67
2023-05-23T03:34:14.550Z,17.77
2023-05-23T03:36:41.502Z,14.60
2023-05-23T03:39:08.413Z,16.40
2023-05-23T03:41:35.440Z,15.60
2023-05-23T03:44:03.648Z,17.27
2023-05-23T03:46:30.814Z,18.73
2023-05-23T03:48:57.780Z,16.10
2023-05-23T03:51:24.650Z,14.07
2023-05-23T03:53:51.518Z,16.00
2023-05-23T03:56:18.471Z,15.73
2023-05-23T03:58:46.082Z,16.57
2023-05-23T04:01:13.600Z,16.03
2023-05-23T04:03:40.593Z,15.30
2023-05-23T04:06:07.766Z,18.37
2023-05-23T04:08:35.573Z,18.37
2023-05-23T04:11:02.815Z,18.53
2023-05-23T04:13:31.262Z,17.70
2023-05-23T04:15:59.693Z,17.00
2023-05-23T04:18:26.649Z,17.43
2023-05-23T04:20:53.583Z,16.70
2023-05-23T04:23:20.485Z,17.17
2023-05-23T04:25:48.426Z,18.60
2023-05-23T04:28:17.470Z,18.43
2023-05-23T04:30:45.068Z,16.23
2023-05-23T04:33:11.972Z,18.27
2023-05-23T04:35:41.666Z,18.80
2023-05-23T04:38:08.742Z,18.30
2023-05-23T04:40:35.582Z,18.50
2023-05-23T04:43:02.381Z,18.50
2023-05-23T04:45:29.552Z,20.37
2023-05-23T04:47:56.534Z,18.17
2023-05-23T04:50:23.417Z,17.50
2023-05-23T04:52:50.123Z,18.30
2023-05-23T04:55:17.390Z,19.57
2023-05-23T04:57:44.278Z,18.97
2023-05-23T05:00:11.839Z,19.40
2023-05-23T05:02:39.502Z,18.80
2023-05-23T05:05:07.221Z,18.23
2023-05-23T05:07:35.981Z,21.40
2023-05-23T05:10:03.256Z,20.63
2023-05-23T05:12:29.996Z,21.57
2023-05-23T05:14:56.784Z,22.90
2023-05-23T05:17:23.702Z,22.47
2023-05-23T05:19:50.495Z,20.63
2023-05-23T05:22:17.300Z,22.33
2023-05-23T05:24:44.067Z,22.07
2023-05-23T05:27:11.980Z,21.20
2023-05-23T05:29:38.749Z,23.63
2023-05-23T05:32:08.968Z,21.70
2023-05-23T05:34:37.814Z,23.30
2023-05-23T05:37:05.001Z,24.10
2023-05-23T05:39:31.814Z,23.97
2023-05-23T05:41:59.361Z,23.30
2023-05-23T05:44:27.098Z,24.10
2023-05-23T05:46:54.280Z,23.70
2023-05-23T05:49:21.060Z,22.37
2023-05-23T05:51:48.155Z,24.40
2023-05-23T05:54:15.806Z,23.97
2023-05-23T05:56:43.914Z,23.27
2023-05-23T05:59:11.123Z,21.23
2023-05-23T06:01:38.292Z,23.97
2023-05-23T06:04:05.285Z,22.27
2023-05-23T06:06:32.370Z,26.03
2023-05-23T06:08:59.513Z,22.40
2023-05-23T06:11:26.889Z,22.90
2023-05-23T06:13:53.731Z,22.43
2023-05-23T06:16:20.758Z,24.17
2023-05-23T06:18:47.511Z,25.07
2023-05-23T06:21:14.451Z,21.87
2023-05-23T06:23:41.436Z,24.17
2023-05-23T06:26:10.886Z,23.43
2023-05-23T06:28:39.949Z,24.90
2023-05-23T06:31:07.403Z,23.03
2023-05-23T06:33:34.313Z,23.87
2023-05-23T06:36:01.160Z,25.30
2023-05-23T06:38:31.226Z,24.43
2023-05-23T06:40:57.977Z,25.10
2023-05-23T06:43:24.808Z,21.87
2023-05-23T06:45:52.207Z,25.00
2023-05-23T06:48:18.964Z,24.37
2023-05-23T06:50:46.394Z,22.60
2023-05-23T06:53:13.176Z,24.00
2023-05-23T06:55:39.963Z,21.77
2023-05-23T06:58:06.763Z,22.30
2023-05-23T07:00:33.698Z,19.10
2023-05-23T07:03:01.384Z,20.03
2023-05-23T07:05:28.448Z,20.17
2023-05-23T07:07:55.506Z,20.17
2023-05-23T07:10:22.586Z,20.33
2023-05-23T07:12:49.435Z,19.70
2023-05-23T07:15:16.337Z,21.20
2023-05-23T07:17:43.175Z,19.67
2023-05-23T07:20:10.369Z,19.57
2023-05-23T07:22:37.095Z,19.20
2023-05-23T07:25:04.094Z,19.43
2023-05-23T07:27:30.904Z,21.60
2023-05-23T07:29:57.797Z,20.20
2023-05-23T07:32:24.654Z,22.90
2023-05-23T07:34:51.683Z,23.60
2023-05-23T07:37:18.437Z,20.23
2023-05-23T07:39:45.199Z,21.10
2023-05-23T07:42:11.939Z,21.17
2023-05-23T07:44:38.745Z,22.37
2023-05-23T07:47:05.501Z,24.27
2023-05-23T07:49:32.345Z,26.80
2023-05-23T07:51:59.099Z,21.57
2023-05-23T07:54:26.020Z,22.93
2023-05-23T07:56:54.708Z,20.10
2023-05-23T07:59:22.887Z,23.10
2023-05-23T08:01:52.906Z,20.40
2023-05-23T08:04:19.810Z,19.87
2023-05-23T08:07:04.028Z,19.27
2023-05-23T08:09:32.065Z,20.43
2023-05-23T08:11:58.985Z,20.60
2023-05-23T08:14:38.276Z,18.97
2023-05-23T08:17:14.579Z,21.70
2023-05-23T08:19:42.156Z,22.13
2023-05-23T08:22:09.159Z,20.27
2023-05-23T08:24:35.919Z,21.10
2023-05-23T08:27:02.683Z,21.77
2023-05-23T08:29:29.497Z,19.53
2023-05-23T08:31:56.516Z,22.10
2023-05-23T08:34:23.461Z,19.73
2023-05-23T08:36:50.342Z,20.27
2023-05-23T08:39:17.192Z,18.27
2023-05-23T08:41:44.363Z,19.10
2023-05-23T08:44:11.225Z,20.60
2023-05-23T08:46:46.220Z,20.63
2023-05-23T08:49:17.806Z,21.20
2023-05-23T08:51:45.604Z,20.20
2023-05-23T08:54:15.823Z,19.47
2023-05-23T08:56:44.202Z,18.97
2023-05-23T08:59:12.982Z,18.83
2023-05-23T09:01:41.744Z,20.53
2023-05-23T09:04:08.721Z,18.60
2023-05-23T09:06:35.563Z,17.83
2023-05-23T09:11:36.149Z,20.13
2023-05-23T09:14:05.165Z,20.30
2023-05-23T09:16:35.273Z,19.50
2023-05-23T09:19:12.154Z,19.10
2023-05-23T09:21:46.299Z,20.37
2023-05-23T09:24:13.131Z,20.20
2023-05-23T09:26:40.274Z,20.37
2023-05-23T09:29:07.787Z,19.93
2023-05-23T09:31:34.908Z,19.30
2023-05-23T09:34:01.777Z,18.10
2023-05-23T09:36:35.072Z,19.70
2023-05-23T09:39:05.690Z,17.00
2023-05-23T09:41:35.690Z,19.23
2023-05-23T09:44:08.470Z,17.20
2023-05-23T09:46:38.852Z,18.63
2023-05-23T09:49:18.422Z,16.10
2023-05-23T09:52:01.358Z,18.47
2023-05-23T09:54:28.215Z,18.43
2023-05-23T09:56:57.239Z,16.87
2023-05-23T09:59:29.034Z,15.20
2023-05-23T10:01:57.941Z,16.43
2023-05-23T10:04:26.894Z,15.90
2023-05-23T10:06:57.777Z,17.03
2023-05-23T10:09:27.175Z,16.57
2023-05-23T10:11:59.709Z,17.67
2023-05-23T10:14:29.616Z,15.57
2023-05-23T10:17:08.524Z,16.13
2023-05-23T10:19:56.656Z,16.10
2023-05-23T10:22:24.501Z,15.27
2023-05-23T10:24:51.348Z,15.23
2023-05-23T10:27:19.046Z,17.43
2023-05-23T10:29:45.905Z,16.13
2023-05-23T10:32:15.047Z,14.43
2023-05-23T10:35:01.076Z,16.33
2023-05-23T10:37:58.409Z,16.97
2023-05-23T10:40:52.555Z,15.90
2023-05-23T10:43:44.618Z,13.07
2023-05-23T10:46:15.109Z,16.30
2023-05-23T10:48:43.724Z,16.63
2023-05-23T10:51:11.425Z,17.33
2023-05-23T10:53:41.260Z,14.53
2023-05-23T10:56:09.417Z,15.63
2023-05-23T10:58:38.568Z,15.37
2023-05-23T11:01:07.687Z,15.00
2023-05-23T11:03:48.732Z,16.40
2023-05-23T11:06:43.423Z,14.73
2023-05-23T11:09:10.169Z,15.80
2023-05-23T11:11:52.768Z,17.17
2023-05-23T11:14:35.388Z,15.07
2023-05-23T11:17:17.198Z,17.40
2023-05-23T11:20:02.442Z,15.17
2023-05-23T11:22:32.624Z,15.00
2023-05-23T11:25:00.760Z,15.73
2023-05-23T11:27:34.775Z,15.63
2023-05-23T11:30:07.918Z,14.57
2023-05-23T11:32:35.630Z,14.80
2023-05-23T11:35:04.497Z,15.00
2023-05-23T11:37:32.073Z,14.60
2023-05-23T11:39:59.830Z,14.70
2023-05-23T11:42:26.806Z,14.03
2023-05-23T11:44:53.988Z,17.53
2023-05-23T11:47:21.515Z,15.20
2023-05-23T11:49:48.497Z,14.77
2023-05-23T11:52:15.714Z,14.50
2023-05-23T11:54:45.842Z,14.27
2023-05-23T11:57:14.424Z,16.60
2023-05-23T11:59:41.324Z,15.80
2023-05-23T12:02:08.698Z,14.70
2023-05-23T12:04:39.248Z,14.27
2023-05-23T12:07:07.600Z,13.90
2023-05-23T12:09:42.925Z,14.70
2023-05-23T12:12:10.005Z,13.23
2023-05-23T12:14:40.183Z,13.77
2023-05-23T12:17:07.012Z,14.60
2023-05-23T12:19:33.825Z,14.63
2023-05-23T12:22:09.787Z,14.93
2023-05-23T12:24:37.015Z,15.07
2023-05-23T12:27:04.245Z,14.33
2023-05-23T12:29:34.787Z,15.33
2023-05-23T12:32:03.506Z,14.73
2023-05-23T12:34:30.318Z,14.07
2023-05-23T12:37:10.501Z,14.97
2023-05-23T12:39:45.659Z,15.37
2023-05-23T12:42:12.706Z,15.00
2023-05-23T12:44:42.067Z,14.57
2023-05-23T12:47:09.200Z,14.30
2023-05-23T12:49:36.248Z,15.53
2023-05-23T12:52:03.049Z,14.20
2023-05-23T12:54:29.857Z,14.30
2023-05-23T12:56:56.600Z,14.07
2023-05-23T12:59:23.701Z,13.73
2023-05-23T13:01:50.508Z,14.17
2023-05-23T13:04:17.475Z,13.50
2023-05-23T13:06:44.313Z,15.33
2023-05-23T13:09:11.104Z,13.63
2023-05-23T13:11:37.953Z,12.30
2023-05-23T13:14:04.829Z,14.87
2023-05-23T13:16:32.289Z,13.63
2023-05-23T13:18:59.106Z,12.53
2023-05-23T13:21:25.934Z,11.63
2023-05-23T13:23:52.683Z,11.70
2023-05-23T13:26:19.424Z,12.50
2023-05-23T13:28:46.330Z,11.80
2023-05-23T13:31:13.157Z,11.80
2023-05-23T13:33:40.033Z,12.03
2023-05-23T13:36:07.144Z,12.90
2023-05-23T13:38:33.893Z,10.73
2023-05-23T13:41:00.768Z,12.40
2023-05-23T13:43:27.545Z,13.17
2023-05-23T13:45:54.320Z,12.20
2023-05-23T13:48:21.172Z,13.30
2023-05-23T13:50:48.013Z,12.60
2023-05-23T13:53:16.822Z,11.80
2023-05-23T13:55:45.354Z,11.17
2023-05-23T13:58:12.770Z,10.93
2023-05-23T14:00:40.406Z,12.80
2023-05-23T14:03:08.960Z,12.20
2023-05-23T14:05:36.696Z,12.40
2023-05-23T14:08:04.592Z,11.33
2023-05-23T14:10:33.371Z,10.30
2023-05-23T14:13:00.361Z,10.13
2023-05-23T14:15:28.137Z,10.80
2023-05-23T14:17:56.034Z,11.67
2023-05-23T14:20:23.725Z,10.80
2023-05-23T14:22:51.595Z,10.90
2023-05-23T14:25:19.341Z,12.53
2023-05-23T14:27:46.213Z,11.00
2023-05-23T14:30:13.477Z,11.27
2023-05-23T14:32:41.563Z,9.27
2023-05-23T14:35:10.753Z,10.60
2023-05-23T14:37:37.782Z,10.40
2023-05-23T14:40:10.144Z,12.23
2023-05-23T14:42:37.107Z,11.80
2023-05-23T14:45:04.963Z,11.80
2023-05-23T14:47:32.615Z,10.23
2023-05-23T14:49:59.454Z,10.10
2023-05-23T14:52:26.324Z,9.60
2023-05-23T14:54:53.158Z,9.80
2023-05-23T14:57:20.143Z,9.10
2023-05-23T14:59:47.414Z,9.30
2023-05-23T15:02:14.358Z,9.10
2023-05-23T15:04:41.171Z,8.73
2023-05-23T15:07:08.045Z,7.87
2023-05-23T15:09:37.588Z,8.67
2023-05-23T15:12:05.356Z,7.37
2023-05-23T15:14:32.244Z,7.90
2023-05-23T15:17:07.503Z,7.30
2023-05-23T15:19:39.622Z,7.77
2023-05-23T15:22:06.384Z,6.90
2023-05-23T15:24:34.986Z,6.97
2023-05-23T15:27:15.862Z,8.10
2023-05-23T15:29:46.737Z,6.13
2023-05-23T15:32:13.796Z,6.47
2023-05-23T15:34:40.809Z,5.67
2023-05-23T15:37:07.857Z,5.93
2023-05-23T15:39:34.881Z,5.87
2023-05-23T15:42:02.103Z,5.67
2023-05-23T15:44:28.951Z,10.30
2023-05-23T15:46:56.056Z,5.60
2023-05-23T15:49:26.567Z,5.73
2023-05-23T15:51:55.301Z,5.57
2023-05-23T15:54:22.568Z,6.40
2023-05-23T15:56:49.402Z,5.10
2023-05-23T15:59:16.213Z,5.13
2023-05-23T16:01:43.155Z,4.50
2023-05-23T16:04:10.061Z,4.20
2023-05-23T16:06:37.058Z,4.20
2023-05-23T16:09:03.937Z,4.37
2023-05-23T16:11:30.952Z,4.23
2023-05-23T16:13:57.736Z,4.23
2023-05-23T16:16:24.612Z,4.47
2023-05-23T16:18:51.616Z,3.87
2023-05-23T16:21:20.691Z,4.17
2023-05-23T16:23:49.006Z,3.80
2023-05-23T16:26:17.602Z,4.00
2023-05-23T16:28:44.607Z,3.03
2023-05-23T16:31:16.682Z,3.23
2023-05-23T16:33:44.974Z,3.30
2023-05-23T16:36:12.061Z,2.87
2023-05-23T16:38:38.964Z,2.97
2023-05-23T16:41:05.841Z,2.73
2023-05-23T16:43:34.575Z,2.80
2023-05-23T16:46:01.515Z,3.40
2023-05-23T16:48:28.672Z,2.73
2023-05-23T16:50:56.735Z,2.97
2023-05-23T16:53:23.677Z,2.80
2023-05-23T16:55:50.766Z,3.30
2023-05-23T16:58:20.082Z,2.60
2023-05-23T17:00:47.968Z,3.50
2023-05-23T17:03:14.900Z,3.30
2023-05-23T17:05:42.203Z,3.50
2023-05-23T17:08:09.277Z,2.63
2023-05-23T17:10:36.934Z,3.10
2023-05-23T17:13:03.969Z,2.83
2023-05-23T17:15:31.302Z,2.50
2023-05-23T17:17:58.273Z,2.53
2023-05-23T17:20:27.000Z,2.87
2023-05-23T17:22:54.721Z,3.47
2023-05-23T17:25:21.760Z,3.17
2023-05-23T17:27:48.547Z,2.60
2023-05-23T17:30:18.488Z,3.03
2023-05-23T17:32:48.258Z,3.10
2023-05-23T17:35:15.294Z,3.30
2023-05-23T17:37:43.771Z,3.50
2023-05-23T17:40:14.011Z,3.00
2023-05-23T17:42:41.496Z,3.63
2023-05-23T17:45:09.851Z,3.03
2023-05-23T17:47:36.897Z,4.37
2023-05-23T17:50:07.464Z,5.90
2023-05-23T17:52:34.619Z,7.90
2023-05-23T17:55:01.971Z,3.17
2023-05-23T17:57:31.093Z,3.93
2023-05-23T17:59:59.191Z,2.80
2023-05-23T18:02:27.286Z,3.70
2023-05-23T18:04:55.012Z,3.90
2023-05-23T18:07:21.971Z,3.83
2023-05-23T18:09:48.760Z,3.43
2023-05-23T18:12:16.624Z,3.40
2023-05-23T18:14:43.905Z,2.77
2023-05-23T18:17:11.053Z,3.27
2023-05-23T18:19:38.021Z,3.50
2023-05-23T18:22:05.395Z,3.60
2023-05-23T18:24:32.177Z,3.67
2023-05-23T18:26:59.041Z,4.57
2023-05-23T18:29:26.256Z,3.80
2023-05-23T18:31:54.042Z,4.00
2023-05-23T18:34:21.727Z,4.07
2023-05-23T18:36:48.555Z,3.50
2023-05-23T18:39:16.414Z,4.53
2023-05-23T18:41:43.181Z,4.20
2023-05-23T18:44:09.993Z,4.50
2023-05-23T18:46:36.837Z,4.60
2023-05-23T18:49:04.922Z,4.13
2023-05-23T18:51:32.466Z,4.23
2023-05-23T18:53:59.296Z,4.70
2023-05-23T18:56:26.984Z,4.80
2023-05-23T18:58:53.904Z,4.93
2023-05-23T19:01:21.379Z,4.73
2023-05-23T19:03:48.606Z,5.03
2023-05-23T19:06:15.963Z,4.93
2023-05-23T19:08:42.902Z,5.20
2023-05-23T19:11:10.777Z,5.10
2023-05-23T19:13:37.687Z,5.00
2023-05-23T19:16:04.853Z,4.80
2023-05-23T19:18:32.153Z,5.50
2023-05-23T19:20:59.081Z,6.07
2023-05-23T19:23:25.900Z,5.10
2023-05-23T19:25:52.704Z,5.20
2023-05-23T19:28:19.490Z,5.20
2023-05-23T19:30:46.355Z,5.60
2023-05-23T19:33:14.654Z,5.23
2023-05-23T19:35:41.568Z,4.60
2023-05-23T19:38:08.321Z,4.70
2023-05-23T19:40:35.325Z,4.60
2023-05-23T19:43:02.090Z,5.17
2023-05-23T19:45:28.914Z,4.53
2023-05-23T19:47:57.113Z,4.20
2023-05-23T19:50:23.970Z,4.10
2023-05-23T19:52:51.382Z,4.60
2023-05-23T19:55:18.220Z,5.33
2023-05-23T19:57:45.233Z,4.27
2023-05-23T20:00:14.751Z,4.60
2023-05-23T20:02:42.477Z,4.00
2023-05-23T20:05:09.616Z,4.27
2023-05-23T20:07:36.642Z,4.47
2023-05-23T20:10:04.195Z,6.00
2023-05-23T20:12:31.010Z,5.13
2023-05-23T20:14:57.883Z,4.40
2023-05-23T20:17:24.749Z,3.30
2023-05-23T20:19:51.694Z,4.07
2023-05-23T20:22:18.582Z,4.40
2023-05-23T20:24:46.739Z,4.47
2023-05-23T20:27:13.730Z,3.40
2023-05-23T20:29:40.755Z,4.20
2023-05-23T20:32:07.659Z,4.43
2023-05-23T20:34:34.456Z,3.73
2023-05-23T20:37:01.659Z,4.53
2023-05-23T20:39:28.526Z,3.57
2023-05-23T20:41:55.437Z,4.00
2023-05-23T20:44:22.238Z,4.43
2023-05-23T20:46:49.154Z,4.07
2023-05-23T20:49:16.652Z,3.70
2023-05-23T20:51:43.529Z,4.50
2023-05-23T20:54:10.527Z,4.10
2023-05-23T20:56:37.350Z,3.67
2023-05-23T20:59:04.273Z,4.80
2023-05-23T21:01:31.233Z,4.60
2023-05-23T21:03:58.177Z,3.87
2023-05-23T21:06:24.966Z,4.47
2023-05-23T21:08:51.954Z,4.43
2023-05-23T21:11:18.709Z,4.60
2023-05-23T21:13:45.662Z,5.03
2023-05-23T21:16:14.560Z,4.70
2023-05-23T21:18:41.613Z,4.50
2023-05-23T21:21:08.374Z,4.20
2023-05-23T21:23:35.378Z,4.57
2023-05-23T21:26:02.408Z,4.10
2023-05-23T21:28:29.202Z,4.77
2023-05-23T21:30:56.685Z,4.40
2023-05-23T21:33:23.625Z,5.67
2023-05-23T21:35:51.212Z,3.80
2023-05-23T21:38:18.274Z,4.53
2023-05-23T21:40:45.268Z,4.57
2023-05-23T21:43:12.071Z,4.37
2023-05-23T21:45:39.225Z,4.13
2023-05-23T21:48:06.137Z,3.93
2023-05-23T21:50:32.977Z,5.13
2023-05-23T21:52:59.839Z,3.97
2023-05-23T21:55:27.312Z,4.17
2023-05-23T21:57:54.110Z,4.10
2023-05-23T22:00:22.743Z,4.87
2023-05-23T22:02:49.727Z,4.33
2023-05-23T22:05:16.785Z,3.77
2023-05-23T22:07:43.577Z,4.87
2023-05-23T22:10:10.923Z,4.40
2023-05-23T22:12:37.843Z,4.43
2023-05-23T22:15:05.519Z,5.13
2023-05-23T22:17:34.108Z,5.17
2023-05-23T22:20:02.398Z,5.20
2023-05-23T22:22:29.261Z,4.70
2023-05-23T22:24:56.215Z,5.43
2023-05-23T22:27:23.036Z,4.00
2023-05-23T22:29:49.827Z,4.43
2023-05-23T22:32:16.702Z,4.77
2023-05-23T22:34:45.372Z,4.80
2023-05-23T22:37:12.238Z,4.50
2023-05-23T22:39:38.990Z,5.50
2023-05-23T22:42:06.018Z,4.80
2023-05-23T22:44:32.851Z,4.93
2023-05-23T22:47:00.117Z,5.30
2023-05-23T22:49:30.041Z,5.00
2023-05-23T22:51:57.690Z,4.90
2023-05-23T22:54:24.463Z,5.20
2023-05-23T22:56:52.897Z,4.90
2023-05-23T22:59:19.681Z,4.60
2023-05-23T23:01:46.662Z,4.97
2023-05-23T23:04:13.467Z,5.20
2023-05-23T23:06:43.197Z,4.80
2023-05-23T23:09:10.208Z,5.33
2023-05-23T23:11:37.030Z,4.77
2023-05-23T23:14:03.817Z,4.60
2023-05-23T23:16:30.705Z,4.07
2023-05-23T23:18:58.072Z,4.03
2023-05-23T23:21:24.839Z,4.73
2023-05-23T23:23:51.831Z,5.60
2023-05-23T23:26:18.781Z,4.57
2023-05-23T23:28:45.572Z,3.53
2023-05-23T23:31:12.375Z,3.93
2023-05-23T23:33:39.480Z,4.30
2023-05-23T23:36:06.525Z,4.73
2023-05-23T23:38:33.346Z,3.97
2023-05-23T23:41:00.139Z,4.83
2023-05-23T23:43:26.935Z,4.23
2023-05-23T23:45:53.697Z,4.03
2023-05-23T23:48:20.706Z,4.10
2023-05-23T23:50:47.579Z,4.07
2023-05-23T23:53:14.337Z,4.20
2023-05-23T23:55:41.098Z,3.90
2023-05-23T23:58:08.936Z,4.30
